sensor_id;sensor_type;location;lat;lon;timestamp;pressure;altitude;pressure_sealevel;temperature;humidity
81816;BME280;71249;52.084;5.304;2023-07-20T00:01:12;101480.0;;;17.11;79.98
81816;BME280;71249;52.084;5.304;2023-07-20T00:02:50;101478.0;;;17.23;79.33
81816;BME280;71249;52.084;5.304;2023-07-20T00:04:26;101480.0;;;17.21;79.47
81816;BME280;71249;52.084;5.304;2023-07-20T00:06:02;101478.0;;;17.18;79.55
81816;BME280;71249;52.084;5.304;2023-07-20T00:09:14;101476.0;;;17.11;79.72
81816;BME280;71249;52.084;5.304;2023-07-20T00:10:50;101481.0;;;17.05;79.69
81816;BME280;71249;52.084;5.304;2023-07-20T00:12:27;101476.0;;;16.96;79.72
81816;BME280;71249;52.084;5.304;2023-07-20T00:15:39;101478.0;;;17.0;79.27
81816;BME280;71249;52.084;5.304;2023-07-20T00:17:15;101478.0;;;17.02;79.13
81816;BME280;71249;52.084;5.304;2023-07-20T00:18:51;101476.0;;;16.87;79.33
81816;BME280;71249;52.084;5.304;2023-07-20T00:22:04;101480.0;;;16.84;79.55
81816;BME280;71249;52.084;5.304;2023-07-20T00:23:39;101477.0;;;16.73;79.38
81816;BME280;71249;52.084;5.304;2023-07-20T00:25:16;101483.0;;;16.66;79.72
81816;BME280;71249;52.084;5.304;2023-07-20T00:28:28;101483.0;;;16.68;79.41
81816;BME280;71249;52.084;5.304;2023-07-20T00:30:05;101481.0;;;16.5;79.87
81816;BME280;71249;52.084;5.304;2023-07-20T00:31:41;101480.0;;;16.45;80.08
81816;BME280;71249;52.084;5.304;2023-07-20T00:33:18;101478.0;;;16.36;80.11
81816;BME280;71249;52.084;5.304;2023-07-20T00:36:30;101473.0;;;16.34;80.31
81816;BME280;71249;52.084;5.304;2023-07-20T00:38:06;101476.0;;;16.34;79.94
81816;BME280;71249;52.084;5.304;2023-07-20T00:39:43;101473.0;;;16.27;80.13
81816;BME280;71249;52.084;5.304;2023-07-20T00:42:55;101468.0;;;16.23;80.11
81816;BME280;71249;52.084;5.304;2023-07-20T00:44:31;101472.0;;;16.2;79.84
81816;BME280;71249;52.084;5.304;2023-07-20T00:46:08;101474.0;;;16.13;79.92
81816;BME280;71249;52.084;5.304;2023-07-20T00:49:22;101480.0;;;16.04;80.16
81816;BME280;71249;52.084;5.304;2023-07-20T00:51:00;101476.0;;;15.93;80.59
81816;BME280;71249;52.084;5.304;2023-07-20T00:52:37;101473.0;;;15.96;80.77
81816;BME280;71249;52.084;5.304;2023-07-20T00:54:14;101475.0;;;15.99;80.89
81816;BME280;71249;52.084;5.304;2023-07-20T00:57:27;101480.0;;;15.94;80.89
81816;BME280;71249;52.084;5.304;2023-07-20T00:59:03;101474.0;;;15.93;81.05
81816;BME280;71249;52.084;5.304;2023-07-20T01:00:40;101480.0;;;15.99;80.41
81816;BME280;71249;52.084;5.304;2023-07-20T01:03:52;101477.0;;;15.88;80.53
81816;BME280;71249;52.084;5.304;2023-07-20T01:05:37;101477.0;;;15.84;80.72
81816;BME280;71249;52.084;5.304;2023-07-20T01:07:23;101481.0;;;15.87;80.41
81816;BME280;71249;52.084;5.304;2023-07-20T01:09:08;101481.0;;;15.81;80.22
81816;BME280;71249;52.084;5.304;2023-07-20T01:12:40;101480.0;;;15.78;80.28
81816;BME280;71249;52.084;5.304;2023-07-20T01:14:18;101475.0;;;15.81;79.94
81816;BME280;71249;52.084;5.304;2023-07-20T01:15:57;101474.0;;;15.77;79.55
81816;BME280;71249;52.084;5.304;2023-07-20T01:17:36;101476.0;;;15.64;80.03
81816;BME280;71249;52.084;5.304;2023-07-20T01:20:48;101480.0;;;15.56;80.11
81816;BME280;71249;52.084;5.304;2023-07-20T01:22:45;101480.0;;;15.51;79.94
81816;BME280;71249;52.084;5.304;2023-07-20T01:25:06;101480.0;;;15.46;80.05
81816;BME280;71249;52.084;5.304;2023-07-20T01:27:00;101481.0;;;15.45;79.97
81816;BME280;71249;52.084;5.304;2023-07-20T01:30:16;101488.0;;;15.36;80.02
81816;BME280;71249;52.084;5.304;2023-07-20T01:32:02;101493.0;;;15.25;80.11
81816;BME280;71249;52.084;5.304;2023-07-20T01:35:19;101490.0;;;15.18;80.39
81816;BME280;71249;52.084;5.304;2023-07-20T01:36:58;101493.0;;;15.17;80.2
81816;BME280;71249;52.084;5.304;2023-07-20T01:38:35;101491.0;;;15.15;80.11
81816;BME280;71249;52.084;5.304;2023-07-20T01:40:13;101486.0;;;15.04;80.33
81816;BME280;71249;52.084;5.304;2023-07-20T01:43:26;101486.0;;;15.01;80.23
81816;BME280;71249;52.084;5.304;2023-07-20T01:45:02;101486.0;;;14.89;80.55
81816;BME280;71249;52.084;5.304;2023-07-20T01:46:39;101486.0;;;14.82;80.53
81816;BME280;71249;52.084;5.304;2023-07-20T01:49:51;101492.0;;;14.74;80.64
81816;BME280;71249;52.084;5.304;2023-07-20T01:51:27;101490.0;;;14.72;80.83
81816;BME280;71249;52.084;5.304;2023-07-20T01:53:04;101497.0;;;14.71;80.83
81816;BME280;71249;52.084;5.304;2023-07-20T01:56:16;101498.0;;;14.72;80.7
81816;BME280;71249;52.084;5.304;2023-07-20T01:57:52;101498.0;;;14.69;80.58
81816;BME280;71249;52.084;5.304;2023-07-20T01:59:29;101505.0;;;14.64;80.39
81816;BME280;71249;52.084;5.304;2023-07-20T02:01:05;101505.0;;;14.64;80.24
81816;BME280;71249;52.084;5.304;2023-07-20T02:04:17;101502.0;;;14.58;80.27
81816;BME280;71249;52.084;5.304;2023-07-20T02:05:53;101505.0;;;14.56;80.41
81816;BME280;71249;52.084;5.304;2023-07-20T02:07:30;101502.0;;;14.52;80.38
81816;BME280;71249;52.084;5.304;2023-07-20T02:10:45;101498.0;;;14.44;80.58
81816;BME280;71249;52.084;5.304;2023-07-20T02:12:21;101495.0;;;14.47;80.44
81816;BME280;71249;52.084;5.304;2023-07-20T02:13:57;101498.0;;;14.4;80.62
81816;BME280;71249;52.084;5.304;2023-07-20T02:17:09;101500.0;;;14.37;80.44
81816;BME280;71249;52.084;5.304;2023-07-20T02:18:45;101498.0;;;14.34;80.45
81816;BME280;71249;52.084;5.304;2023-07-20T02:20:21;101494.0;;;14.31;80.27
81816;BME280;71249;52.084;5.304;2023-07-20T02:21:58;101498.0;;;14.26;80.33
81816;BME280;71249;52.084;5.304;2023-07-20T02:25:10;101501.0;;;14.27;80.36
81816;BME280;71249;52.084;5.304;2023-07-20T02:26:46;101503.0;;;14.21;80.44
81816;BME280;71249;52.084;5.304;2023-07-20T02:28:22;101499.0;;;14.17;80.55
81816;BME280;71249;52.084;5.304;2023-07-20T02:31:34;101502.0;;;14.18;80.3
81816;BME280;71249;52.084;5.304;2023-07-20T02:33:10;101500.0;;;14.15;80.27
81816;BME280;71249;52.084;5.304;2023-07-20T02:34:47;101496.0;;;14.05;80.45
81816;BME280;71249;52.084;5.304;2023-07-20T02:37:59;101499.0;;;14.01;80.41
81816;BME280;71249;52.084;5.304;2023-07-20T02:41:12;101501.0;;;13.97;80.66
81816;BME280;71249;52.084;5.304;2023-07-20T02:44:25;101505.0;;;13.91;80.84
81816;BME280;71249;52.084;5.304;2023-07-20T02:46:01;101506.0;;;13.84;81.09
81816;BME280;71249;52.084;5.304;2023-07-20T02:47:37;101508.0;;;13.88;81.03
81816;BME280;71249;52.084;5.304;2023-07-20T02:49:13;101508.0;;;13.84;81.16
81816;BME280;71249;52.084;5.304;2023-07-20T02:52:26;101509.0;;;13.84;80.86
81816;BME280;71249;52.084;5.304;2023-07-20T02:54:02;101509.0;;;13.81;80.74
81816;BME280;71249;52.084;5.304;2023-07-20T02:55:38;101514.0;;;13.77;80.77
81816;BME280;71249;52.084;5.304;2023-07-20T02:58:50;101520.0;;;13.79;80.72
81816;BME280;71249;52.084;5.304;2023-07-20T03:00:27;101520.0;;;13.76;80.58
81816;BME280;71249;52.084;5.304;2023-07-20T03:02:03;101520.0;;;13.68;80.56
81816;BME280;71249;52.084;5.304;2023-07-20T03:05:15;101523.0;;;13.66;80.53
81816;BME280;71249;52.084;5.304;2023-07-20T03:06:52;101528.0;;;13.56;80.47
81816;BME280;71249;52.084;5.304;2023-07-20T03:08:28;101528.0;;;13.57;80.63
81816;BME280;71249;52.084;5.304;2023-07-20T03:11:41;101532.0;;;13.56;80.47
81816;BME280;71249;52.084;5.304;2023-07-20T03:13:17;101531.0;;;13.55;80.22
81816;BME280;71249;52.084;5.304;2023-07-20T03:14:53;101538.0;;;13.48;79.94
81816;BME280;71249;52.084;5.304;2023-07-20T03:16:29;101540.0;;;13.42;80.09
81816;BME280;71249;52.084;5.304;2023-07-20T03:19:42;101537.0;;;13.4;80.25
81816;BME280;71249;52.084;5.304;2023-07-20T03:21:18;101538.0;;;13.29;80.11
81816;BME280;71249;52.084;5.304;2023-07-20T03:22:54;101539.0;;;13.26;80.3
81816;BME280;71249;52.084;5.304;2023-07-20T03:26:06;101545.0;;;13.23;80.33
81816;BME280;71249;52.084;5.304;2023-07-20T03:27:42;101543.0;;;13.23;80.09
81816;BME280;71249;52.084;5.304;2023-07-20T03:29:18;101539.0;;;13.22;80.14
81816;BME280;71249;52.084;5.304;2023-07-20T03:32:31;101536.0;;;13.2;79.83
81816;BME280;71249;52.084;5.304;2023-07-20T03:34:07;101532.0;;;13.14;79.94
81816;BME280;71249;52.084;5.304;2023-07-20T03:35:44;101537.0;;;13.08;79.91
81816;BME280;71249;52.084;5.304;2023-07-20T03:37:20;101542.0;;;13.07;80.02
81816;BME280;71249;52.084;5.304;2023-07-20T03:40:32;101542.0;;;13.0;80.11
81816;BME280;71249;52.084;5.304;2023-07-20T03:42:08;101542.0;;;12.99;80.05
81816;BME280;71249;52.084;5.304;2023-07-20T03:43:44;101539.0;;;12.94;80.03
81816;BME280;71249;52.084;5.304;2023-07-20T03:46:56;101541.0;;;12.89;79.97
81816;BME280;71249;52.084;5.304;2023-07-20T03:48:33;101539.0;;;12.85;80.16
81816;BME280;71249;52.084;5.304;2023-07-20T03:50:10;101539.0;;;12.81;80.12
81816;BME280;71249;52.084;5.304;2023-07-20T03:53:22;101539.0;;;12.77;80.27
81816;BME280;71249;52.084;5.304;2023-07-20T03:54:58;101541.0;;;12.76;80.47
81816;BME280;71249;52.084;5.304;2023-07-20T03:56:34;101542.0;;;12.83;80.27
81816;BME280;71249;52.084;5.304;2023-07-20T03:59:48;101546.0;;;12.75;79.87
81816;BME280;71249;52.084;5.304;2023-07-20T04:01:24;101548.0;;;12.69;80.23
81816;BME280;71249;52.084;5.304;2023-07-20T04:03:01;101551.0;;;12.71;80.36
81816;BME280;71249;52.084;5.304;2023-07-20T04:04:37;101555.0;;;12.76;80.14
81816;BME280;71249;52.084;5.304;2023-07-20T04:07:49;101553.0;;;12.71;80.44
81816;BME280;71249;52.084;5.304;2023-07-20T04:09:25;101553.0;;;12.75;80.52
81816;BME280;71249;52.084;5.304;2023-07-20T04:11:01;101552.0;;;12.75;80.52
81816;BME280;71249;52.084;5.304;2023-07-20T04:14:13;101556.0;;;12.77;80.22
81816;BME280;71249;52.084;5.304;2023-07-20T04:15:49;101562.0;;;12.79;80.19
81816;BME280;71249;52.084;5.304;2023-07-20T04:17:25;101562.0;;;12.73;80.36
81816;BME280;71249;52.084;5.304;2023-07-20T04:20:37;101562.0;;;12.7;80.28
81816;BME280;71249;52.084;5.304;2023-07-20T04:22:13;101562.0;;;12.74;80.31
81816;BME280;71249;52.084;5.304;2023-07-20T04:23:50;101566.0;;;12.71;80.47
81816;BME280;71249;52.084;5.304;2023-07-20T04:25:26;101566.0;;;12.74;80.55
81816;BME280;71249;52.084;5.304;2023-07-20T04:28:38;101566.0;;;12.78;80.27
81816;BME280;71249;52.084;5.304;2023-07-20T04:30:17;101567.0;;;12.77;80.44
81816;BME280;71249;52.084;5.304;2023-07-20T04:31:53;101572.0;;;12.69;80.77
81816;BME280;71249;52.084;5.304;2023-07-20T04:35:06;101577.0;;;12.82;80.7
81816;BME280;71249;52.084;5.304;2023-07-20T04:36:43;101570.0;;;12.83;80.45
81816;BME280;71249;52.084;5.304;2023-07-20T04:38:19;101567.0;;;12.79;80.48
81816;BME280;71249;52.084;5.304;2023-07-20T04:41:32;101572.0;;;12.89;80.34
81816;BME280;71249;52.084;5.304;2023-07-20T04:43:08;101569.0;;;12.81;80.49
81816;BME280;71249;52.084;5.304;2023-07-20T04:44:44;101570.0;;;12.82;80.39
81816;BME280;71249;52.084;5.304;2023-07-20T04:46:20;101573.0;;;12.85;80.28
81816;BME280;71249;52.084;5.304;2023-07-20T04:49:32;101573.0;;;12.89;80.08
81816;BME280;71249;52.084;5.304;2023-07-20T04:51:09;101574.0;;;12.91;79.95
81816;BME280;71249;52.084;5.304;2023-07-20T04:52:45;101573.0;;;12.89;79.91
81816;BME280;71249;52.084;5.304;2023-07-20T04:55:57;101571.0;;;12.88;80.05
81816;BME280;71249;52.084;5.304;2023-07-20T04:57:33;101570.0;;;12.87;79.77
81816;BME280;71249;52.084;5.304;2023-07-20T04:59:09;101576.0;;;12.84;79.91
81816;BME280;71249;52.084;5.304;2023-07-20T05:02:21;101578.0;;;12.86;79.73
81816;BME280;71249;52.084;5.304;2023-07-20T05:03:57;101580.0;;;12.79;79.66
81816;BME280;71249;52.084;5.304;2023-07-20T05:05:34;101586.0;;;12.82;80.0
81816;BME280;71249;52.084;5.304;2023-07-20T05:08:46;101583.0;;;12.78;80.41
81816;BME280;71249;52.084;5.304;2023-07-20T05:10:22;101582.0;;;12.84;80.47
81816;BME280;71249;52.084;5.304;2023-07-20T05:11:59;101581.0;;;12.9;80.58
81816;BME280;71249;52.084;5.304;2023-07-20T05:13:36;101581.0;;;13.01;80.56
81816;BME280;71249;52.084;5.304;2023-07-20T05:16:49;101584.0;;;13.16;80.33
81816;BME280;71249;52.084;5.304;2023-07-20T05:18:25;101582.0;;;13.2;80.38
81816;BME280;71249;52.084;5.304;2023-07-20T05:20:01;101582.0;;;13.14;80.19
81816;BME280;71249;52.084;5.304;2023-07-20T05:23:14;101581.0;;;13.24;80.3
81816;BME280;71249;52.084;5.304;2023-07-20T05:24:50;101581.0;;;13.32;80.41
81816;BME280;71249;52.084;5.304;2023-07-20T05:26:26;101585.0;;;13.39;80.52
81816;BME280;71249;52.084;5.304;2023-07-20T05:29:43;101584.0;;;13.51;80.63
81816;BME280;71249;52.084;5.304;2023-07-20T05:31:20;101582.0;;;13.58;80.75
81816;BME280;71249;52.084;5.304;2023-07-20T05:32:56;101583.0;;;13.76;80.72
81816;BME280;71249;52.084;5.304;2023-07-20T05:34:32;101587.0;;;13.81;80.17
81816;BME280;71249;52.084;5.304;2023-07-20T05:37:45;101586.0;;;13.95;80.39
81816;BME280;71249;52.084;5.304;2023-07-20T05:39:21;101585.0;;;14.09;79.94
81816;BME280;71249;52.084;5.304;2023-07-20T05:40:59;101582.0;;;14.1;80.03
81816;BME280;71249;52.084;5.304;2023-07-20T05:44:13;101581.0;;;14.11;78.95
81816;BME280;71249;52.084;5.304;2023-07-20T05:45:49;101580.0;;;14.23;79.23
81816;BME280;71249;52.084;5.304;2023-07-20T05:47:25;101577.0;;;14.47;79.48
81816;BME280;71249;52.084;5.304;2023-07-20T05:50:41;101576.0;;;14.72;79.16
81816;BME280;71249;52.084;5.304;2023-07-20T05:52:18;101578.0;;;14.9;79.16
81816;BME280;71249;52.084;5.304;2023-07-20T05:53:54;101574.0;;;14.99;78.55
81816;BME280;71249;52.084;5.304;2023-07-20T05:55:31;101571.0;;;15.17;78.5
81816;BME280;71249;52.084;5.304;2023-07-20T05:58:44;101575.0;;;15.37;78.2
81816;BME280;71249;52.084;5.304;2023-07-20T06:00:20;101575.0;;;15.48;77.99
81816;BME280;71249;52.084;5.304;2023-07-20T06:01:56;101580.0;;;15.72;77.99
81816;BME280;71249;52.084;5.304;2023-07-20T06:05:09;101580.0;;;15.84;77.77
81816;BME280;71249;52.084;5.304;2023-07-20T06:06:45;101577.0;;;16.06;77.66
81816;BME280;71249;52.084;5.304;2023-07-20T06:08:21;101575.0;;;16.29;77.63
81816;BME280;71249;52.084;5.304;2023-07-20T06:11:33;101574.0;;;16.46;77.34
81816;BME280;71249;52.084;5.304;2023-07-20T06:13:09;101576.0;;;16.7;77.02
81816;BME280;71249;52.084;5.304;2023-07-20T06:14:46;101577.0;;;17.03;76.84
81816;BME280;71249;52.084;5.304;2023-07-20T06:16:22;101580.0;;;17.09;76.3
81816;BME280;71249;52.084;5.304;2023-07-20T06:19:34;101584.0;;;17.3;75.67
81816;BME280;71249;52.084;5.304;2023-07-20T06:21:11;101582.0;;;17.5;74.61
81816;BME280;71249;52.084;5.304;2023-07-20T06:22:47;101583.0;;;17.66;74.28
81816;BME280;71249;52.084;5.304;2023-07-20T06:25:59;101587.0;;;17.88;74.47
81816;BME280;71249;52.084;5.304;2023-07-20T06:27:35;101589.0;;;17.86;73.48
81816;BME280;71249;52.084;5.304;2023-07-20T06:29:12;101586.0;;;18.0;73.12
81816;BME280;71249;52.084;5.304;2023-07-20T06:32:24;101590.0;;;18.16;72.58
81816;BME280;71249;52.084;5.304;2023-07-20T06:34:00;101589.0;;;18.36;72.03
81816;BME280;71249;52.084;5.304;2023-07-20T06:35:36;101592.0;;;18.45;72.06
81816;BME280;71249;52.084;5.304;2023-07-20T06:38:48;101589.0;;;18.52;69.8
81816;BME280;71249;52.084;5.304;2023-07-20T06:40:24;101591.0;;;18.66;68.59
81816;BME280;71249;52.084;5.304;2023-07-20T06:42:01;101597.0;;;18.73;68.83
81816;BME280;71249;52.084;5.304;2023-07-20T06:43:37;101597.0;;;18.77;69.67
81816;BME280;71249;52.084;5.304;2023-07-20T06:46:49;101599.0;;;18.97;67.97
81816;BME280;71249;52.084;5.304;2023-07-20T06:48:25;101601.0;;;19.22;68.36
81816;BME280;71249;52.084;5.304;2023-07-20T06:50:01;101600.0;;;19.16;67.72
81816;BME280;71249;52.084;5.304;2023-07-20T06:53:13;101601.0;;;19.14;67.94
81816;BME280;71249;52.084;5.304;2023-07-20T06:54:49;101596.0;;;19.36;66.52
81816;BME280;71249;52.084;5.304;2023-07-20T06:56:26;101599.0;;;19.34;67.52
81816;BME280;71249;52.084;5.304;2023-07-20T06:59:37;101603.0;;;19.45;67.3
81816;BME280;71249;52.084;5.304;2023-07-20T07:01:14;101605.0;;;19.63;65.92
81816;BME280;71249;52.084;5.304;2023-07-20T07:02:50;101605.0;;;19.7;65.16
81816;BME280;71249;52.084;5.304;2023-07-20T07:04:26;101605.0;;;19.75;65.41
81816;BME280;71249;52.084;5.304;2023-07-20T07:07:39;101605.0;;;19.79;64.05
81816;BME280;71249;52.084;5.304;2023-07-20T07:09:15;101603.0;;;19.63;63.86
81816;BME280;71249;52.084;5.304;2023-07-20T07:10:52;101601.0;;;19.5;63.95
81816;BME280;71249;52.084;5.304;2023-07-20T07:14:04;101605.0;;;19.45;64.14
81816;BME280;71249;52.084;5.304;2023-07-20T07:15:40;101606.0;;;19.41;65.27
81816;BME280;71249;52.084;5.304;2023-07-20T07:17:16;101605.0;;;19.37;64.83
81816;BME280;71249;52.084;5.304;2023-07-20T07:20:28;101608.0;;;19.43;65.8
81816;BME280;71249;52.084;5.304;2023-07-20T07:22:05;101606.0;;;19.56;64.31
81816;BME280;71249;52.084;5.304;2023-07-20T07:23:41;101605.0;;;19.52;63.55
81816;BME280;71249;52.084;5.304;2023-07-20T07:26:53;101608.0;;;19.52;63.38
81816;BME280;71249;52.084;5.304;2023-07-20T07:28:29;101605.0;;;19.45;64.31
81816;BME280;71249;52.084;5.304;2023-07-20T07:30:06;101609.0;;;19.31;66.03
81816;BME280;71249;52.084;5.304;2023-07-20T07:31:43;101616.0;;;19.23;68.02
81816;BME280;71249;52.084;5.304;2023-07-20T07:34:56;101614.0;;;19.34;67.91
81816;BME280;71249;52.084;5.304;2023-07-20T07:36:33;101608.0;;;19.41;67.87
81816;BME280;71249;52.084;5.304;2023-07-20T07:38:09;101606.0;;;19.54;67.59
81816;BME280;71249;52.084;5.304;2023-07-20T07:41:21;101609.0;;;19.73;67.58
81816;BME280;71249;52.084;5.304;2023-07-20T07:42:57;101606.0;;;19.95;67.33
81816;BME280;71249;52.084;5.304;2023-07-20T07:44:33;101605.0;;;20.16;66.24
81816;BME280;71249;52.084;5.304;2023-07-20T07:47:45;101602.0;;;20.29;61.01
81816;BME280;71249;52.084;5.304;2023-07-20T07:49:21;101606.0;;;20.23;63.21
81816;BME280;71249;52.084;5.304;2023-07-20T07:50:57;101609.0;;;20.47;64.27
81816;BME280;71249;52.084;5.304;2023-07-20T07:52:34;101605.0;;;20.59;61.67
81816;BME280;71249;52.084;5.304;2023-07-20T07:55:47;101603.0;;;20.58;60.57
81816;BME280;71249;52.084;5.304;2023-07-20T07:57:23;101602.0;;;20.94;60.68
81816;BME280;71249;52.084;5.304;2023-07-20T07:58:59;101605.0;;;21.04;60.58
81816;BME280;71249;52.084;5.304;2023-07-20T08:02:11;101600.0;;;21.1;55.95
81816;BME280;71249;52.084;5.304;2023-07-20T08:03:47;101603.0;;;21.33;57.4
81816;BME280;71249;52.084;5.304;2023-07-20T08:05:24;101605.0;;;21.26;51.12
81816;BME280;71249;52.084;5.304;2023-07-20T08:08:37;101605.0;;;21.31;50.28
81816;BME280;71249;52.084;5.304;2023-07-20T08:10:14;101598.0;;;21.41;53.03
81816;BME280;71249;52.084;5.304;2023-07-20T08:11:50;101599.0;;;21.41;54.62
81816;BME280;71249;52.084;5.304;2023-07-20T08:13:26;101600.0;;;21.45;51.81
81816;BME280;71249;52.084;5.304;2023-07-20T08:16:38;101593.0;;;21.7;54.88
81816;BME280;71249;52.084;5.304;2023-07-20T08:18:14;101599.0;;;21.68;51.21
81816;BME280;71249;52.084;5.304;2023-07-20T08:19:51;101603.0;;;21.83;53.94
81816;BME280;71249;52.084;5.304;2023-07-20T08:23:03;101599.0;;;21.68;51.7
81816;BME280;71249;52.084;5.304;2023-07-20T08:24:39;101600.0;;;21.33;52.49
81816;BME280;71249;52.084;5.304;2023-07-20T08:26:16;101605.0;;;21.48;52.91
81816;BME280;71249;52.084;5.304;2023-07-20T08:29:28;101609.0;;;21.74;56.41
81816;BME280;71249;52.084;5.304;2023-07-20T08:31:05;101607.0;;;21.65;54.23
81816;BME280;71249;52.084;5.304;2023-07-20T08:32:43;101609.0;;;21.7;55.37
81816;BME280;71249;52.084;5.304;2023-07-20T08:35:55;101610.0;;;21.8;52.88
81816;BME280;71249;52.084;5.304;2023-07-20T08:37:31;101609.0;;;22.18;54.57
81816;BME280;71249;52.084;5.304;2023-07-20T08:39:07;101616.0;;;22.4;52.44
81816;BME280;71249;52.084;5.304;2023-07-20T08:40:45;101613.0;;;22.26;49.06
81816;BME280;71249;52.084;5.304;2023-07-20T08:44:00;101617.0;;;22.32;47.03
81816;BME280;71249;52.084;5.304;2023-07-20T08:47:16;101612.0;;;22.24;43.45
81816;BME280;71249;52.084;5.304;2023-07-20T08:50:31;101613.0;;;22.25;43.37
81816;BME280;71249;52.084;5.304;2023-07-20T08:52:08;101608.0;;;22.24;40.97
81816;BME280;71249;52.084;5.304;2023-07-20T08:53:45;101609.0;;;22.24;44.67
81816;BME280;71249;52.084;5.304;2023-07-20T08:55:23;101614.0;;;22.23;45.42
81816;BME280;71249;52.084;5.304;2023-07-20T08:58:43;101609.0;;;22.55;44.51
81816;BME280;71249;52.084;5.304;2023-07-20T09:00:21;101611.0;;;22.69;43.79
81816;BME280;71249;52.084;5.304;2023-07-20T09:01:58;101608.0;;;22.67;40.53
81816;BME280;71249;52.084;5.304;2023-07-20T09:05:11;101612.0;;;22.96;42.88
81816;BME280;71249;52.084;5.304;2023-07-20T09:06:49;101609.0;;;22.96;45.35
81816;BME280;71249;52.084;5.304;2023-07-20T09:08:25;101607.0;;;22.89;45.57
81816;BME280;71249;52.084;5.304;2023-07-20T09:10:01;101605.0;;;23.08;45.79
81816;BME280;71249;52.084;5.304;2023-07-20T09:13:16;101603.0;;;23.17;43.36
81816;BME280;71249;52.084;5.304;2023-07-20T09:14:52;101600.0;;;23.18;41.13
81816;BME280;71249;52.084;5.304;2023-07-20T09:16:28;101601.0;;;23.12;40.47
81816;BME280;71249;52.084;5.304;2023-07-20T09:19:45;101598.0;;;23.07;43.45
81816;BME280;71249;52.084;5.304;2023-07-20T09:21:22;101603.0;;;22.86;42.58
81816;BME280;71249;52.084;5.304;2023-07-20T09:22:58;101602.0;;;22.74;42.36
81816;BME280;71249;52.084;5.304;2023-07-20T09:24:34;101610.0;;;22.45;41.06
81816;BME280;71249;52.084;5.304;2023-07-20T09:27:48;101611.0;;;22.39;43.5
81816;BME280;71249;52.084;5.304;2023-07-20T09:29:26;101609.0;;;22.51;44.45
81816;BME280;71249;52.084;5.304;2023-07-20T09:31:15;101609.0;;;22.58;43.12
81816;BME280;71249;52.084;5.304;2023-07-20T09:34:29;101605.0;;;22.71;41.53
81816;BME280;71249;52.084;5.304;2023-07-20T09:36:05;101605.0;;;22.81;42.56
81816;BME280;71249;52.084;5.304;2023-07-20T09:37:46;101601.0;;;22.81;41.64
81816;BME280;71249;52.084;5.304;2023-07-20T09:39:22;101592.0;;;22.87;39.47
81816;BME280;71249;52.084;5.304;2023-07-20T09:42:35;101596.0;;;22.89;39.87
81816;BME280;71249;52.084;5.304;2023-07-20T09:44:14;101598.0;;;23.02;40.85
81816;BME280;71249;52.084;5.304;2023-07-20T09:45:57;101601.0;;;23.2;41.69
81816;BME280;71249;52.084;5.304;2023-07-20T09:47:36;101601.0;;;23.17;39.64
81816;BME280;71249;52.084;5.304;2023-07-20T09:50:50;101594.0;;;23.45;40.78
81816;BME280;71249;52.084;5.304;2023-07-20T09:52:27;101593.0;;;23.59;40.17
81816;BME280;71249;52.084;5.304;2023-07-20T09:54:04;101592.0;;;23.54;36.56
81816;BME280;71249;52.084;5.304;2023-07-20T09:57:18;101590.0;;;23.71;38.1
81816;BME280;71249;52.084;5.304;2023-07-20T09:58:57;101591.0;;;23.78;39.86
81816;BME280;71249;52.084;5.304;2023-07-20T10:00:35;101590.0;;;23.85;39.97
81816;BME280;71249;52.084;5.304;2023-07-20T10:02:18;101586.0;;;23.74;36.28
81816;BME280;71249;52.084;5.304;2023-07-20T10:05:40;101580.0;;;23.72;39.08
81816;BME280;71249;52.084;5.304;2023-07-20T10:07:22;101581.0;;;23.9;37.78
81816;BME280;71249;52.084;5.304;2023-07-20T10:09:01;101587.0;;;23.71;37.72
81816;BME280;71249;52.084;5.304;2023-07-20T10:10:41;101592.0;;;23.77;38.92
81816;BME280;71249;52.084;5.304;2023-07-20T10:13:59;101590.0;;;23.88;37.53
81816;BME280;71249;52.084;5.304;2023-07-20T10:15:43;101585.0;;;23.84;37.67
81816;BME280;71249;52.084;5.304;2023-07-20T10:17:23;101586.0;;;23.54;36.61
81816;BME280;71249;52.084;5.304;2023-07-20T10:19:05;101583.0;;;23.55;36.14
81816;BME280;71249;52.084;5.304;2023-07-20T10:22:25;101581.0;;;23.75;37.21
81816;BME280;71249;52.084;5.304;2023-07-20T10:24:07;101578.0;;;23.98;38.64
81816;BME280;71249;52.084;5.304;2023-07-20T10:25:45;101569.0;;;24.11;38.35
81816;BME280;71249;52.084;5.304;2023-07-20T10:27:23;101574.0;;;24.21;37.42
81816;BME280;71249;52.084;5.304;2023-07-20T10:30:38;101573.0;;;24.38;37.96
81816;BME280;71249;52.084;5.304;2023-07-20T10:32:14;101569.0;;;24.27;36.85
81816;BME280;71249;52.084;5.304;2023-07-20T10:33:50;101568.0;;;24.48;38.42
81816;BME280;71249;52.084;5.304;2023-07-20T10:37:04;101568.0;;;24.4;39.25
81816;BME280;71249;52.084;5.304;2023-07-20T10:38:41;101568.0;;;24.5;40.61
81816;BME280;71249;52.084;5.304;2023-07-20T10:40:28;101572.0;;;24.38;36.36
81816;BME280;71249;52.084;5.304;2023-07-20T10:42:14;101574.0;;;24.19;36.64
81816;BME280;71249;52.084;5.304;2023-07-20T10:45:34;101570.0;;;24.07;36.78
81816;BME280;71249;52.084;5.304;2023-07-20T10:47:28;101566.0;;;24.08;37.99
81816;BME280;71249;52.084;5.304;2023-07-20T10:49:20;101569.0;;;23.88;37.19
81816;BME280;71249;52.084;5.304;2023-07-20T10:51:13;101573.0;;;23.81;37.99
81816;BME280;71249;52.084;5.304;2023-07-20T10:53:04;101572.0;;;23.72;40.47
81816;BME280;71249;52.084;5.304;2023-07-20T10:54:48;101568.0;;;23.86;42.42
81816;BME280;71249;52.084;5.304;2023-07-20T10:58:07;101570.0;;;23.82;38.99
81816;BME280;71249;52.084;5.304;2023-07-20T10:59:46;101566.0;;;23.62;36.93
81816;BME280;71249;52.084;5.304;2023-07-20T11:01:27;101562.0;;;23.46;36.61
81816;BME280;71249;52.084;5.304;2023-07-20T11:03:04;101564.0;;;23.58;38.11
81816;BME280;71249;52.084;5.304;2023-07-20T11:06:33;101562.0;;;23.43;40.17
81816;BME280;71249;52.084;5.304;2023-07-20T11:08:11;101558.0;;;23.45;40.6
81816;BME280;71249;52.084;5.304;2023-07-20T11:09:48;101559.0;;;23.24;37.31
81816;BME280;71249;52.084;5.304;2023-07-20T11:11:26;101563.0;;;23.35;38.93